sensor_id;sensor_type;location;lat;lon;timestamp;temperature;humidity
43949;DHT22;29429;51.074;13.764;2022-09-27T00:01:12;11.80;99.90
43949;DHT22;29429;51.074;13.764;2022-09-27T00:03:41;11.80;99.90
43949;DHT22;29429;51.074;13.764;2022-09-27T00:06:26;11.70;99.90
43949;DHT22;29429;51.074;13.764;2022-09-27T00:08:55;11.80;99.90
43949;DHT22;29429;51.074;13.764;2022-09-27T00:11:29;11.80;99.90
43949;DHT22;29429;51.074;13.764;2022-09-27T00:13:59;11.80;99.90
43949;DHT22;29429;51.074;13.764;2022-09-27T00:16:28;11.80;99.90
43949;DHT22;29429;51.074;13.764;2022-09-27T00:18:59;11.80;99.90
43949;DHT22;29429;51.074;13.764;2022-09-27T00:21:28;11.90;99.90
43949;DHT22;29429;51.074;13.764;2022-09-27T00:23:56;11.90;99.90
43949;DHT22;29429;51.074;13.764;2022-09-27T00:26:25;11.90;99.90
43949;DHT22;29429;51.074;13.764;2022-09-27T00:28:53;11.90;99.90
43949;DHT22;29429;51.074;13.764;2022-09-27T00:31:24;11.90;99.90
43949;DHT22;29429;51.074;13.764;2022-09-27T00:33:57;11.90;99.90
43949;DHT22;29429;51.074;13.764;2022-09-27T00:36:27;11.90;99.90
43949;DHT22;29429;51.074;13.764;2022-09-27T00:38:55;11.90;99.90
43949;DHT22;29429;51.074;13.764;2022-09-27T00:41:25;11.90;99.90
43949;DHT22;29429;51.074;13.764;2022-09-27T00:43:59;11.90;99.90
43949;DHT22;29429;51.074;13.764;2022-09-27T00:46:38;11.90;99.90
43949;DHT22;29429;51.074;13.764;2022-09-27T00:52:08;12.00;99.90
43949;DHT22;29429;51.074;13.764;2022-09-27T00:54:43;12.00;99.90
43949;DHT22;29429;51.074;13.764;2022-09-27T00:57:14;12.10;99.90
43949;DHT22;29429;51.074;13.764;2022-09-27T00:59:47;12.00;99.90
43949;DHT22;29429;51.074;13.764;2022-09-27T01:02:21;12.10;99.90
43949;DHT22;29429;51.074;13.764;2022-09-27T01:04:48;12.00;99.90
43949;DHT22;29429;51.074;13.764;2022-09-27T01:07:16;12.00;99.90
43949;DHT22;29429;51.074;13.764;2022-09-27T01:09:43;12.10;99.90
43949;DHT22;29429;51.074;13.764;2022-09-27T01:24:25;12.10;99.90
43949;DHT22;29429;51.074;13.764;2022-09-27T01:42:26;12.00;99.90
43949;DHT22;29429;51.074;13.764;2022-09-27T01:45:41;12.00;99.90
43949;DHT22;29429;51.074;13.764;2022-09-27T01:48:22;12.00;99.90
43949;DHT22;29429;51.074;13.764;2022-09-27T01:51:10;12.00;99.90
43949;DHT22;29429;51.074;13.764;2022-09-27T01:53:44;11.90;99.90
43949;DHT22;29429;51.074;13.764;2022-09-27T01:56:36;11.90;99.90
43949;DHT22;29429;51.074;13.764;2022-09-27T02:02:08;12.10;99.90
43949;DHT22;29429;51.074;13.764;2022-09-27T02:05:00;12.00;99.90
43949;DHT22;29429;51.074;13.764;2022-09-27T02:07:37;12.00;99.90
43949;DHT22;29429;51.074;13.764;2022-09-27T02:10:17;11.90;99.90
43949;DHT22;29429;51.074;13.764;2022-09-27T02:13:03;12.00;99.90
43949;DHT22;29429;51.074;13.764;2022-09-27T02:28:08;12.00;99.90
43949;DHT22;29429;51.074;13.764;2022-09-27T02:30:50;12.00;99.90
43949;DHT22;29429;51.074;13.764;2022-09-27T02:33:28;12.10;99.90
43949;DHT22;29429;51.074;13.764;2022-09-27T02:36:00;12.00;99.90
43949;DHT22;29429;51.074;13.764;2022-09-27T02:38:27;12.00;99.90
43949;DHT22;29429;51.074;13.764;2022-09-27T02:40:56;12.00;99.90
43949;DHT22;29429;51.074;13.764;2022-09-27T02:43:26;12.00;99.90
43949;DHT22;29429;51.074;13.764;2022-09-27T02:51:46;11.90;99.90
43949;DHT22;29429;51.074;13.764;2022-09-27T02:58:29;11.90;99.90
43949;DHT22;29429;51.074;13.764;2022-09-27T03:05:00;11.90;99.90
43949;DHT22;29429;51.074;13.764;2022-09-27T03:07:31;11.90;99.90
43949;DHT22;29429;51.074;13.764;2022-09-27T03:09:59;11.90;99.90
43949;DHT22;29429;51.074;13.764;2022-09-27T03:12:26;11.90;99.90
43949;DHT22;29429;51.074;13.764;2022-09-27T03:14:56;11.90;99.90
43949;DHT22;29429;51.074;13.764;2022-09-27T03:17:45;11.90;99.90
43949;DHT22;29429;51.074;13.764;2022-09-27T03:20:35;11.90;99.90
43949;DHT22;29429;51.074;13.764;2022-09-27T03:23:23;11.90;99.90
43949;DHT22;29429;51.074;13.764;2022-09-27T03:25:50;12.00;99.90
43949;DHT22;29429;51.074;13.764;2022-09-27T03:28:18;12.00;99.90
43949;DHT22;29429;51.074;13.764;2022-09-27T03:30:46;12.10;99.90
43949;DHT22;29429;51.074;13.764;2022-09-27T03:33:33;12.00;99.90
43949;DHT22;29429;51.074;13.764;2022-09-27T03:36:06;11.90;99.90
43949;DHT22;29429;51.074;13.764;2022-09-27T03:38:33;11.90;99.90
43949;DHT22;29429;51.074;13.764;2022-09-27T03:41:00;11.90;99.90
43949;DHT22;29429;51.074;13.764;2022-09-27T03:43:28;11.90;99.90
43949;DHT22;29429;51.074;13.764;2022-09-27T03:45:59;11.90;99.90
43949;DHT22;29429;51.074;13.764;2022-09-27T03:48:26;11.90;99.90
43949;DHT22;29429;51.074;13.764;2022-09-27T03:50:56;11.90;99.90
43949;DHT22;29429;51.074;13.764;2022-09-27T03:53:24;11.80;99.90
43949;DHT22;29429;51.074;13.764;2022-09-27T03:55:51;11.80;99.90
43949;DHT22;29429;51.074;13.764;2022-09-27T03:58:18;11.80;99.90
43949;DHT22;29429;51.074;13.764;2022-09-27T04:00:45;11.80;99.90
43949;DHT22;29429;51.074;13.764;2022-09-27T04:03:13;11.70;99.90
43949;DHT22;29429;51.074;13.764;2022-09-27T04:05:49;11.70;99.90
43949;DHT22;29429;51.074;13.764;2022-09-27T04:08:20;11.70;99.90
43949;DHT22;29429;51.074;13.764;2022-09-27T04:10:52;11.70;99.90
43949;DHT22;29429;51.074;13.764;2022-09-27T04:13:19;11.70;99.90
43949;DHT22;29429;51.074;13.764;2022-09-27T04:15:52;11.60;99.90
43949;DHT22;29429;51.074;13.764;2022-09-27T04:18:43;11.70;99.90
43949;DHT22;29429;51.074;13.764;2022-09-27T04:21:41;11.60;99.90
43949;DHT22;29429;51.074;13.764;2022-09-27T04:24:09;11.60;99.90
43949;DHT22;29429;51.074;13.764;2022-09-27T04:26:41;11.60;99.90
43949;DHT22;29429;51.074;13.764;2022-09-27T04:29:11;11.60;99.90
43949;DHT22;29429;51.074;13.764;2022-09-27T04:31:45;11.60;99.90
43949;DHT22;29429;51.074;13.764;2022-09-27T04:34:18;11.60;99.90
43949;DHT22;29429;51.074;13.764;2022-09-27T04:37:12;11.60;99.90
43949;DHT22;29429;51.074;13.764;2022-09-27T04:39:43;11.50;99.90
43949;DHT22;29429;51.074;13.764;2022-09-27T04:42:10;11.60;99.90
43949;DHT22;29429;51.074;13.764;2022-09-27T04:44:38;11.60;99.90
43949;DHT22;29429;51.074;13.764;2022-09-27T04:47:05;11.50;99.90
43949;DHT22;29429;51.074;13.764;2022-09-27T04:49:33;11.60;99.90
43949;DHT22;29429;51.074;13.764;2022-09-27T04:52:01;11.50;99.90
43949;DHT22;29429;51.074;13.764;2022-09-27T04:54:28;11.50;99.90
43949;DHT22;29429;51.074;13.764;2022-09-27T04:57:08;11.50;99.90
43949;DHT22;29429;51.074;13.764;2022-09-27T04:59:36;11.50;99.90
43949;DHT22;29429;51.074;13.764;2022-09-27T05:02:03;11.50;99.90
43949;DHT22;29429;51.074;13.764;2022-09-27T05:05:00;11.60;99.90
43949;DHT22;29429;51.074;13.764;2022-09-27T05:07:34;11.60;99.90
43949;DHT22;29429;51.074;13.764;2022-09-27T05:10:07;11.50;99.90
43949;DHT22;29429;51.074;13.764;2022-09-27T05:12:35;11.50;99.90
43949;DHT22;29429;51.074;13.764;2022-09-27T05:15:03;11.50;99.90
43949;DHT22;29429;51.074;13.764;2022-09-27T05:17:52;11.50;99.90
43949;DHT22;29429;51.074;13.764;2022-09-27T05:20:38;11.50;99.90
43949;DHT22;29429;51.074;13.764;2022-09-27T05:23:10;11.60;99.90
43949;DHT22;29429;51.074;13.764;2022-09-27T05:25:38;11.60;99.90
43949;DHT22;29429;51.074;13.764;2022-09-27T05:28:05;11.60;99.90
43949;DHT22;29429;51.074;13.764;2022-09-27T05:30:32;11.60;99.90
43949;DHT22;29429;51.074;13.764;2022-09-27T05:33:06;11.70;99.90
43949;DHT22;29429;51.074;13.764;2022-09-27T05:35:39;11.60;99.90
43949;DHT22;29429;51.074;13.764;2022-09-27T05:38:11;11.50;99.90
43949;DHT22;29429;51.074;13.764;2022-09-27T05:40:41;11.60;99.90
43949;DHT22;29429;51.074;13.764;2022-09-27T05:43:10;11.60;99.90
43949;DHT22;29429;51.074;13.764;2022-09-27T05:45:37;11.60;99.90
43949;DHT22;29429;51.074;13.764;2022-09-27T05:48:05;11.60;99.90
43949;DHT22;29429;51.074;13.764;2022-09-27T05:50:38;11.60;99.90
43949;DHT22;29429;51.074;13.764;2022-09-27T05:53:06;11.70;99.90
43949;DHT22;29429;51.074;13.764;2022-09-27T05:55:33;11.70;99.90
43949;DHT22;29429;51.074;13.764;2022-09-27T05:58:03;11.80;99.90
43949;DHT22;29429;51.074;13.764;2022-09-27T06:00:57;11.70;99.90
43949;DHT22;29429;51.074;13.764;2022-09-27T06:03:44;11.70;99.90
43949;DHT22;29429;51.074;13.764;2022-09-27T06:06:35;11.70;99.90
43949;DHT22;29429;51.074;13.764;2022-09-27T06:09:03;11.80;99.90
43949;DHT22;29429;51.074;13.764;2022-09-27T06:11:31;11.80;99.90
43949;DHT22;29429;51.074;13.764;2022-09-27T06:13:58;11.80;99.90
43949;DHT22;29429;51.074;13.764;2022-09-27T06:16:26;11.80;99.90
43949;DHT22;29429;51.074;13.764;2022-09-27T06:18:53;11.80;99.90
43949;DHT22;29429;51.074;13.764;2022-09-27T06:21:21;11.90;99.90
43949;DHT22;29429;51.074;13.764;2022-09-27T06:23:54;12.00;99.90
43949;DHT22;29429;51.074;13.764;2022-09-27T06:26:40;12.00;99.90
43949;DHT22;29429;51.074;13.764;2022-09-27T06:29:33;12.00;99.90
43949;DHT22;29429;51.074;13.764;2022-09-27T06:32:02;12.00;99.90
43949;DHT22;29429;51.074;13.764;2022-09-27T06:34:39;12.10;99.90
43949;DHT22;29429;51.074;13.764;2022-09-27T06:37:07;12.00;99.90
43949;DHT22;29429;51.074;13.764;2022-09-27T06:39:34;12.20;99.90
43949;DHT22;29429;51.074;13.764;2022-09-27T06:42:17;12.10;99.90
43949;DHT22;29429;51.074;13.764;2022-09-27T06:45:11;12.10;99.90
43949;DHT22;29429;51.074;13.764;2022-09-27T06:47:57;12.20;99.90
43949;DHT22;29429;51.074;13.764;2022-09-27T06:50:50;12.30;99.90
43949;DHT22;29429;51.074;13.764;2022-09-27T06:53:21;12.30;99.90
43949;DHT22;29429;51.074;13.764;2022-09-27T06:55:49;12.40;99.90
43949;DHT22;29429;51.074;13.764;2022-09-27T06:58:17;12.40;99.90
43949;DHT22;29429;51.074;13.764;2022-09-27T07:01:29;12.50;99.90
43949;DHT22;29429;51.074;13.764;2022-09-27T07:04:28;12.60;99.90
43949;DHT22;29429;51.074;13.764;2022-09-27T07:06:58;12.90;99.90
43949;DHT22;29429;51.074;13.764;2022-09-27T07:09:29;12.90;99.90
43949;DHT22;29429;51.074;13.764;2022-09-27T07:11:56;13.00;99.90
43949;DHT22;29429;51.074;13.764;2022-09-27T07:14:24;13.10;99.90
43949;DHT22;29429;51.074;13.764;2022-09-27T07:16:54;13.10;99.90
43949;DHT22;29429;51.074;13.764;2022-09-27T07:19:20;13.10;99.90
43949;DHT22;29429;51.074;13.764;2022-09-27T07:21:50;13.00;99.90
43949;DHT22;29429;51.074;13.764;2022-09-27T07:24:17;13.00;99.90
43949;DHT22;29429;51.074;13.764;2022-09-27T07:26:47;13.00;99.90
43949;DHT22;29429;51.074;13.764;2022-09-27T07:29:16;13.10;99.90
43949;DHT22;29429;51.074;13.764;2022-09-27T07:31:43;13.20;99.90
43949;DHT22;29429;51.074;13.764;2022-09-27T07:34:10;13.20;99.90
43949;DHT22;29429;51.074;13.764;2022-09-27T07:36:38;13.30;99.90
43949;DHT22;29429;51.074;13.764;2022-09-27T07:39:06;13.40;99.90
43949;DHT22;29429;51.074;13.764;2022-09-27T07:41:33;13.40;99.90
43949;DHT22;29429;51.074;13.764;2022-09-27T07:44:00;13.50;99.90
43949;DHT22;29429;51.074;13.764;2022-09-27T07:46:30;13.70;99.90
43949;DHT22;29429;51.074;13.764;2022-09-27T07:49:06;13.70;99.90
43949;DHT22;29429;51.074;13.764;2022-09-27T07:51:49;13.80;99.90
43949;DHT22;29429;51.074;13.764;2022-09-27T07:54:43;13.80;99.90
43949;DHT22;29429;51.074;13.764;2022-09-27T07:57:23;14.00;99.90
43949;DHT22;29429;51.074;13.764;2022-09-27T07:59:52;13.90;99.90
43949;DHT22;29429;51.074;13.764;2022-09-27T08:02:21;13.90;99.90
43949;DHT22;29429;51.074;13.764;2022-09-27T08:04:50;13.90;99.90
43949;DHT22;29429;51.074;13.764;2022-09-27T08:07:18;14.00;99.90
43949;DHT22;29429;51.074;13.764;2022-09-27T08:09:49;14.00;99.90
43949;DHT22;29429;51.074;13.764;2022-09-27T08:12:16;14.10;99.90
43949;DHT22;29429;51.074;13.764;2022-09-27T08:14:43;14.10;99.90
43949;DHT22;29429;51.074;13.764;2022-09-27T08:17:15;14.20;99.90
43949;DHT22;29429;51.074;13.764;2022-09-27T08:20:04;14.30;99.90
43949;DHT22;29429;51.074;13.764;2022-09-27T08:22:40;14.30;99.90
43949;DHT22;29429;51.074;13.764;2022-09-27T08:25:20;14.30;99.90
43949;DHT22;29429;51.074;13.764;2022-09-27T08:28:03;14.30;99.90
43949;DHT22;29429;51.074;13.764;2022-09-27T08:30:40;14.30;99.90
43949;DHT22;29429;51.074;13.764;2022-09-27T08:33:07;14.20;99.90
43949;DHT22;29429;51.074;13.764;2022-09-27T08:35:34;14.40;99.90
43949;DHT22;29429;51.074;13.764;2022-09-27T08:38:02;14.50;99.90
43949;DHT22;29429;51.074;13.764;2022-09-27T08:40:58;14.50;99.90
43949;DHT22;29429;51.074;13.764;2022-09-27T08:46:59;14.70;99.90
43949;DHT22;29429;51.074;13.764;2022-09-27T08:49:37;14.80;99.90
43949;DHT22;29429;51.074;13.764;2022-09-27T08:52:20;14.80;99.90
43949;DHT22;29429;51.074;13.764;2022-09-27T08:54:55;14.80;99.90
43949;DHT22;29429;51.074;13.764;2022-09-27T08:57:27;14.90;99.90
43949;DHT22;29429;51.074;13.764;2022-09-27T09:02:28;15.00;99.90
43949;DHT22;29429;51.074;13.764;2022-09-27T09:05:00;15.10;99.90
43949;DHT22;29429;51.074;13.764;2022-09-27T09:07:41;15.20;99.90
43949;DHT22;29429;51.074;13.764;2022-09-27T09:33:52;15.00;99.90
43949;DHT22;29429;51.074;13.764;2022-09-27T09:36:33;15.00;99.90
43949;DHT22;29429;51.074;13.764;2022-09-27T09:39:23;14.90;99.90
43949;DHT22;29429;51.074;13.764;2022-09-27T09:47:47;15.10;99.90
43949;DHT22;29429;51.074;13.764;2022-09-27T09:50:39;15.20;99.90
43949;DHT22;29429;51.074;13.764;2022-09-27T09:56:02;15.30;99.90
43949;DHT22;29429;51.074;13.764;2022-09-27T09:58:50;15.40;99.90
43949;DHT22;29429;51.074;13.764;2022-09-27T10:04:21;15.20;99.90
43949;DHT22;29429;51.074;13.764;2022-09-27T10:06:56;15.30;99.90
43949;DHT22;29429;51.074;13.764;2022-09-27T10:09:29;15.30;99.90
43949;DHT22;29429;51.074;13.764;2022-09-27T10:12:14;15.40;99.90
43949;DHT22;29429;51.074;13.764;2022-09-27T10:14:46;15.50;99.90
43949;DHT22;29429;51.074;13.764;2022-09-27T10:17:19;15.60;99.90
43949;DHT22;29429;51.074;13.764;2022-09-27T10:19:49;15.40;99.90
43949;DHT22;29429;51.074;13.764;2022-09-27T10:22:32;15.20;99.90
43949;DHT22;29429;51.074;13.764;2022-09-27T10:25:12;15.20;99.90
43949;DHT22;29429;51.074;13.764;2022-09-27T10:28:04;15.20;99.90
43949;DHT22;29429;51.074;13.764;2022-09-27T10:30:36;15.10;99.90
43949;DHT22;29429;51.074;13.764;2022-09-27T10:33:16;14.90;99.90
43949;DHT22;29429;51.074;13.764;2022-09-27T10:35:51;14.70;99.90
43949;DHT22;29429;51.074;13.764;2022-09-27T10:38:34;14.70;99.90
43949;DHT22;29429;51.074;13.764;2022-09-27T10:41:33;14.80;99.90
43949;DHT22;29429;51.074;13.764;2022-09-27T10:46:53;14.90;99.90
43949;DHT22;29429;51.074;13.764;2022-09-27T10:49:40;14.80;99.90
43949;DHT22;29429;51.074;13.764;2022-09-27T10:52:41;14.60;99.90
43949;DHT22;29429;51.074;13.764;2022-09-27T10:55:28;14.30;99.90
43949;DHT22;29429;51.074;13.764;2022-09-27T10:58:04;14.10;99.90
43949;DHT22;29429;51.074;13.764;2022-09-27T11:00:54;13.90;99.90
43949;DHT22;29429;51.074;13.764;2022-09-27T11:03:29;13.80;99.90
43949;DHT22;29429;51.074;13.764;2022-09-27T11:05:59;13.90;99.90
43949;DHT22;29429;51.074;13.764;2022-09-27T11:08:44;13.90;99.90
43949;DHT22;29429;51.074;13.764;2022-09-27T11:11:28;14.00;99.90
43949;DHT22;29429;51.074;13.764;2022-09-27T11:14:00;14.20;99.90
43949;DHT22;29429;51.074;13.764;2022-09-27T11:25:56;14.50;99.90
43949;DHT22;29429;51.074;13.764;2022-09-27T11:28:56;14.70;99.90
43949;DHT22;29429;51.074;13.764;2022-09-27T11:50:02;14.40;99.90
43949;DHT22;29429;51.074;13.764;2022-09-27T11:59:16;14.10;99.90
43949;DHT22;29429;51.074;13.764;2022-09-27T12:02:17;13.90;99.90
43949;DHT22;29429;51.074;13.764;2022-09-27T12:08:03;14.00;99.90
43949;DHT22;29429;51.074;13.764;2022-09-27T12:14:03;14.70;99.90
43949;DHT22;29429;51.074;13.764;2022-09-27T12:16:36;15.00;99.90
43949;DHT22;29429;51.074;13.764;2022-09-27T12:19:13;15.10;99.90
43949;DHT22;29429;51.074;13.764;2022-09-27T12:22:03;15.20;99.90
43949;DHT22;29429;51.074;13.764;2022-09-27T12:24:38;15.00;99.90
43949;DHT22;29429;51.074;13.764;2022-09-27T12:27:45;14.90;99.90
43949;DHT22;29429;51.074;13.764;2022-09-27T12:30:20;14.90;99.90
43949;DHT22;29429;51.074;13.764;2022-09-27T12:33:09;15.00;99.90
43949;DHT22;29429;51.074;13.764;2022-09-27T12:35:48;15.10;99.90
43949;DHT22;29429;51.074;13.764;2022-09-27T12:38:34;15.20;99.90
43949;DHT22;29429;51.074;13.764;2022-09-27T12:41:10;15.00;99.90
43949;DHT22;29429;51.074;13.764;2022-09-27T12:43:53;14.90;99.90
43949;DHT22;29429;51.074;13.764;2022-09-27T12:49:52;14.90;99.90
43949;DHT22;29429;51.074;13.764;2022-09-27T12:52:33;14.80;99.90
43949;DHT22;29429;51.074;13.764;2022-09-27T12:58:39;14.70;99.90
43949;DHT22;29429;51.074;13.764;2022-09-27T13:12:57;14.30;99.90
43949;DHT22;29429;51.074;13.764;2022-09-27T13:15:36;14.30;99.90
43949;DHT22;29429;51.074;13.764;2022-09-27T13:18:59;14.40;99.90
43949;DHT22;29429;51.074;13.764;2022-09-27T13:21:53;14.50;99.90
43949;DHT22;29429;51.074;13.764;2022-09-27T13:24:45;14.60;99.90
43949;DHT22;29429;51.074;13.764;2022-09-27T13:38:34;14.60;99.90
43949;DHT22;29429;51.074;13.764;2022-09-27T13:41:17;14.40;99.90
43949;DHT22;29429;51.074;13.764;2022-09-27T13:47:11;14.50;99.90
43949;DHT22;29429;51.074;13.764;2022-09-27T13:49:43;14.60;99.90
43949;DHT22;29429;51.074;13.764;2022-09-27T13:52:35;14.80;99.90
43949;DHT22;29429;51.074;13.764;2022-09-27T14:00:58;15.30;99.90
43949;DHT22;29429;51.074;13.764;2022-09-27T14:03:49;15.40;99.90
43949;DHT22;29429;51.074;13.764;2022-09-27T14:06:27;15.60;99.90
43949;DHT22;29429;51.074;13.764;2022-09-27T14:09:05;15.60;99.90
43949;DHT22;29429;51.074;13.764;2022-09-27T14:11:43;15.60;99.90
43949;DHT22;29429;51.074;13.764;2022-09-27T14:14:21;15.50;99.90
43949;DHT22;29429;51.074;13.764;2022-09-27T14:16:58;15.40;99.90
43949;DHT22;29429;51.074;13.764;2022-09-27T14:19:26;15.20;99.90
43949;DHT22;29429;51.074;13.764;2022-09-27T14:21:55;15.00;99.90
43949;DHT22;29429;51.074;13.764;2022-09-27T14:30:35;14.60;99.90
43949;DHT22;29429;51.074;13.764;2022-09-27T14:33:28;14.50;99.90
43949;DHT22;29429;51.074;13.764;2022-09-27T14:36:28;14.20;99.90
43949;DHT22;29429;51.074;13.764;2022-09-27T14:39:31;14.00;99.90
43949;DHT22;29429;51.074;13.764;2022-09-27T14:42:27;13.90;99.90
43949;DHT22;29429;51.074;13.764;2022-09-27T14:44:59;13.90;99.90
43949;DHT22;29429;51.074;13.764;2022-09-27T14:47:28;13.80;99.90
43949;DHT22;29429;51.074;13.764;2022-09-27T14:49:59;13.90;99.90
43949;DHT22;29429;51.074;13.764;2022-09-27T14:52:38;13.80;99.90
43949;DHT22;29429;51.074;13.764;2022-09-27T14:55:12;13.70;99.90
43949;DHT22;29429;51.074;13.764;2022-09-27T14:57:58;13.80;99.90
43949;DHT22;29429;51.074;13.764;2022-09-27T15:00:30;13.80;99.90
43949;DHT22;29429;51.074;13.764;2022-09-27T15:03:03;13.80;99.90
43949;DHT22;29429;51.074;13.764;2022-09-27T15:05:35;13.80;99.90
43949;DHT22;29429;51.074;13.764;2022-09-27T15:08:10;13.60;99.90
43949;DHT22;29429;51.074;13.764;2022-09-27T15:10:41;13.70;99.90
43949;DHT22;29429;51.074;13.764;2022-09-27T15:13:15;13.70;99.90
43949;DHT22;29429;51.074;13.764;2022-09-27T15:15:45;13.70;99.90
43949;DHT22;29429;51.074;13.764;2022-09-27T15:21:04;13.50;99.90
43949;DHT22;29429;51.074;13.764;2022-09-27T15:23:38;13.50;99.90
43949;DHT22;29429;51.074;13.764;2022-09-27T15:26:13;13.40;99.90
43949;DHT22;29429;51.074;13.764;2022-09-27T15:28:51;13.40;99.90
43949;DHT22;29429;51.074;13.764;2022-09-27T15:31:35;13.30;99.90
43949;DHT22;29429;51.074;13.764;2022-09-27T15:34:02;13.30;99.90
43949;DHT22;29429;51.074;13.764;2022-09-27T15:39:29;13.20;99.90
43949;DHT22;29429;51.074;13.764;2022-09-27T15:42:05;13.10;99.90
43949;DHT22;29429;51.074;13.764;2022-09-27T15:44:49;13.00;99.90
43949;DHT22;29429;51.074;13.764;2022-09-27T15:52:48;12.60;99.90
43949;DHT22;29429;51.074;13.764;2022-09-27T15:55:19;12.40;99.90
43949;DHT22;29429;51.074;13.764;2022-09-27T15:57:56;12.30;99.90
43949;DHT22;29429;51.074;13.764;2022-09-27T16:00:28;12.30;99.90
43949;DHT22;29429;51.074;13.764;2022-09-27T16:02:55;12.30;99.90
43949;DHT22;29429;51.074;13.764;2022-09-27T16:05:23;12.30;99.90
43949;DHT22;29429;51.074;13.764;2022-09-27T16:07:50;12.60;99.90
43949;DHT22;29429;51.074;13.764;2022-09-27T16:12:49;12.40;99.90
43949;DHT22;29429;51.074;13.764;2022-09-27T16:15:16;12.50;99.90
43949;DHT22;29429;51.074;13.764;2022-09-27T16:17:43;12.60;99.90
43949;DHT22;29429;51.074;13.764;2022-09-27T16:20:19;12.40;99.90
43949;DHT22;29429;51.074;13.764;2022-09-27T16:22:51;12.30;99.90
43949;DHT22;29429;51.074;13.764;2022-09-27T16:25:20;12.30;99.90
43949;DHT22;29429;51.074;13.764;2022-09-27T16:27:48;12.30;99.90
43949;DHT22;29429;51.074;13.764;2022-09-27T16:30:16;12.20;99.90
43949;DHT22;29429;51.074;13.764;2022-09-27T16:32:44;12.30;99.90
43949;DHT22;29429;51.074;13.764;2022-09-27T16:35:14;12.30;99.90
43949;DHT22;29429;51.074;13.764;2022-09-27T16:37:42;12.20;99.90
43949;DHT22;29429;51.074;13.764;2022-09-27T16:40:11;12.20;99.90
43949;DHT22;29429;51.074;13.764;2022-09-27T16:42:39;12.20;99.90
43949;DHT22;29429;51.074;13.764;2022-09-27T16:45:08;12.10;99.90
43949;DHT22;29429;51.074;13.764;2022-09-27T16:47:39;12.10;99.90
43949;DHT22;29429;51.074;13.764;2022-09-27T16:50:06;12.10;99.90
43949;DHT22;29429;51.074;13.764;2022-09-27T16:52:53;12.00;99.90
43949;DHT22;29429;51.074;13.764;2022-09-27T16:55:20;12.00;99.90
43949;DHT22;29429;51.074;13.764;2022-09-27T16:57:51;11.90;99.90
43949;DHT22;29429;51.074;13.764;2022-09-27T17:00:18;11.80;99.90
43949;DHT22;29429;51.074;13.764;2022-09-27T17:02:48;11.70;99.90
43949;DHT22;29429;51.074;13.764;2022-09-27T17:05:15;11.80;99.90
43949;DHT22;29429;51.074;13.764;2022-09-27T17:07:43;11.60;99.90
43949;DHT22;29429;51.074;13.764;2022-09-27T17:10:10;11.50;99.90
43949;DHT22;29429;51.074;13.764;2022-09-27T17:12:37;11.40;99.90
43949;DHT22;29429;51.074;13.764;2022-09-27T17:15:05;11.40;99.90
43949;DHT22;29429;51.074;13.764;2022-09-27T17:17:32;11.30;99.90
43949;DHT22;29429;51.074;13.764;2022-09-27T17:19:59;11.30;99.90
43949;DHT22;29429;51.074;13.764;2022-09-27T17:22:26;11.20;99.90
43949;DHT22;29429;51.074;13.764;2022-09-27T17:24:53;11.20;99.90
43949;DHT22;29429;51.074;13.764;2022-09-27T17:27:20;11.10;99.90
43949;DHT22;29429;51.074;13.764;2022-09-27T17:29:51;11.00;99.90
43949;DHT22;29429;51.074;13.764;2022-09-27T17:32:18;11.00;99.90
43949;DHT22;29429;51.074;13.764;2022-09-27T17:34:50;10.80;99.90
43949;DHT22;29429;51.074;13.764;2022-09-27T17:37:18;10.90;99.90
43949;DHT22;29429;51.074;13.764;2022-09-27T17:39:45;10.70;99.90
43949;DHT22;29429;51.074;13.764;2022-09-27T17:42:12;10.50;99.90
43949;DHT22;29429;51.074;13.764;2022-09-27T17:44:39;10.50;99.90
43949;DHT22;29429;51.074;13.764;2022-09-27T17:47:06;10.40;99.90
43949;DHT22;29429;51.074;13.764;2022-09-27T17:50:05;10.40;99.90
43949;DHT22;29429;51.074;13.764;2022-09-27T17:52:51;10.30;99.90
43949;DHT22;29429;51.074;13.764;2022-09-27T17:55:19;10.30;99.90
43949;DHT22;29429;51.074;13.764;2022-09-27T17:57:48;10.20;99.90
43949;DHT22;29429;51.074;13.764;2022-09-27T18:00:17;10.20;99.90
43949;DHT22;29429;51.074;13.764;2022-09-27T18:02:44;10.20;99.90
43949;DHT22;29429;51.074;13.764;2022-09-27T18:05:12;10.40;99.90
43949;DHT22;29429;51.074;13.764;2022-09-27T18:07:39;10.30;99.90
43949;DHT22;29429;51.074;13.764;2022-09-27T18:10:06;10.30;99.90
43949;DHT22;29429;51.074;13.764;2022-09-27T18:12:33;10.30;99.90
43949;DHT22;29429;51.074;13.764;2022-09-27T18:15:01;10.30;99.90
43949;DHT22;29429;51.074;13.764;2022-09-27T18:17:31;10.30;99.90
43949;DHT22;29429;51.074;13.764;2022-09-27T18:19:58;10.70;99.90
43949;DHT22;29429;51.074;13.764;2022-09-27T18:22:28;10.40;99.90
43949;DHT22;29429;51.074;13.764;2022-09-27T18:24:56;10.30;99.90
43949;DHT22;29429;51.074;13.764;2022-09-27T18:27:23;10.40;99.90
43949;DHT22;29429;51.074;13.764;2022-09-27T18:29:50;10.30;99.90
43949;DHT22;29429;51.074;13.764;2022-09-27T18:32:18;10.40;99.90
43949;DHT22;29429;51.074;13.764;2022-09-27T18:34:45;10.40;99.90
43949;DHT22;29429;51.074;13.764;2022-09-27T18:37:12;10.40;99.90
43949;DHT22;29429;51.074;13.764;2022-09-27T18:39:38;10.50;99.90
43949;DHT22;29429;51.074;13.764;2022-09-27T18:42:06;10.50;99.90
43949;DHT22;29429;51.074;13.764;2022-09-27T18:44:34;10.50;99.90
43949;DHT22;29429;51.074;13.764;2022-09-27T18:47:01;10.60;99.90
43949;DHT22;29429;51.074;13.764;2022-09-27T18:49:28;10.60;99.90
43949;DHT22;29429;51.074;13.764;2022-09-27T18:52:00;10.60;99.90
43949;DHT22;29429;51.074;13.764;2022-09-27T18:54:28;10.70;99.90
43949;DHT22;29429;51.074;13.764;2022-09-27T18:56:55;10.70;99.90
43949;DHT22;29429;51.074;13.764;2022-09-27T18:59:22;10.70;99.90
43949;DHT22;29429;51.074;13.764;2022-09-27T19:01:49;10.70;99.90
43949;DHT22;29429;51.074;13.764;2022-09-27T19:04:19;10.70;99.90
43949;DHT22;29429;51.074;13.764;2022-09-27T19:06:52;10.70;99.90
43949;DHT22;29429;51.074;13.764;2022-09-27T19:09:20;10.80;99.90
43949;DHT22;29429;51.074;13.764;2022-09-27T19:11:47;10.70;99.90
43949;DHT22;29429;51.074;13.764;2022-09-27T19:14:19;10.70;99.90
43949;DHT22;29429;51.074;13.764;2022-09-27T19:16:48;10.70;99.90
43949;DHT22;29429;51.074;13.764;2022-09-27T19:19:16;10.70;99.90
43949;DHT22;29429;51.074;13.764;2022-09-27T19:21:44;10.70;99.90
43949;DHT22;29429;51.074;13.764;2022-09-27T19:24:12;10.60;99.90